createdAt,value
2019-02-25T00:00:14.273Z,53.87
2019-02-25T00:02:42.906Z,53.81
2019-02-25T00:05:11.534Z,53.76
2019-02-25T00:07:40.251Z,53.51
2019-02-25T00:10:10.278Z,53.27
2019-02-25T00:12:38.906Z,53.22
2019-02-25T00:15:09.824Z,53.14
2019-02-25T00:17:40.430Z,52.91
2019-02-25T00:20:12.601Z,52.84
2019-02-25T00:22:41.256Z,52.65
2019-02-25T00:25:12.247Z,52.60
2019-02-25T00:27:40.867Z,52.71
2019-02-25T00:30:15.168Z,52.65
2019-02-25T00:32:43.797Z,52.55
2019-02-25T00:35:12.422Z,52.57
2019-02-25T00:37:41.103Z,52.59
2019-02-25T00:40:12.329Z,52.59
2019-02-25T00:42:40.915Z,52.91
2019-02-25T00:45:11.577Z,52.91
2019-02-25T00:47:40.208Z,53.19
2019-02-25T00:50:17.527Z,53.37
2019-02-25T00:52:46.259Z,53.33
2019-02-25T00:55:15.396Z,53.70
2019-02-25T00:57:44.177Z,53.70
2019-02-25T01:00:18.159Z,53.29
2019-02-25T01:02:46.792Z,53.29
2019-02-25T01:05:16.234Z,53.06
2019-02-25T01:07:44.869Z,53.17
2019-02-25T01:10:15.213Z,52.72
2019-02-25T01:12:45.447Z,51.78
2019-02-25T01:15:14.379Z,52.39
2019-02-25T01:17:43.025Z,51.34
2019-02-25T01:20:13.911Z,52.25
2019-02-25T01:22:42.470Z,52.12
2019-02-25T01:25:12.812Z,52.29
2019-02-25T01:27:41.480Z,51.96
2019-02-25T01:30:15.369Z,52.11
2019-02-25T01:32:44.016Z,49.66
2019-02-25T01:35:13.853Z,49.84
2019-02-25T01:37:42.590Z,50.67
2019-02-25T01:40:12.717Z,50.22
2019-02-25T01:42:41.387Z,49.09
2019-02-25T01:45:20.672Z,47.33
2019-02-25T01:50:26.685Z,46.34
2019-02-25T01:52:55.309Z,45.86
2019-02-25T01:55:23.830Z,45.68
2019-02-25T01:57:52.390Z,45.34
2019-02-25T02:00:20.979Z,45.38
2019-02-25T02:02:49.600Z,45.75
2019-02-25T02:05:18.150Z,45.67
2019-02-25T02:07:46.742Z,45.79
2019-02-25T02:10:16.450Z,45.46
2019-02-25T02:12:45.078Z,45.44
2019-02-25T02:15:19.644Z,45.07
2019-02-25T02:17:48.265Z,45.35
2019-02-25T02:20:17.923Z,45.43
2019-02-25T02:22:46.597Z,45.18
2019-02-25T02:25:15.528Z,45.31
2019-02-25T02:27:44.153Z,45.33
2019-02-25T02:30:18.600Z,45.51
2019-02-25T02:32:47.228Z,45.73
2019-02-25T02:35:15.855Z,45.61
2019-02-25T02:37:44.850Z,45.39
2019-02-25T02:40:14.582Z,45.38
2019-02-25T02:42:49.124Z,45.57
2019-02-25T02:45:20.662Z,45.46
2019-02-25T02:48:01.515Z,45.34
2019-02-25T02:50:30.067Z,45.11
2019-02-25T02:52:58.682Z,45.43
2019-02-25T02:55:27.348Z,45.59
2019-02-25T02:57:55.979Z,45.38
2019-02-25T03:00:24.599Z,45.40
2019-02-25T03:02:53.261Z,46.00
2019-02-25T03:05:21.808Z,46.00
2019-02-25T03:07:50.452Z,46.17
2019-02-25T03:10:19.900Z,45.84
2019-02-25T03:12:48.451Z,45.93
2019-02-25T03:15:21.491Z,45.57
2019-02-25T03:17:50.143Z,46.07
2019-02-25T03:20:18.776Z,46.07
2019-02-25T03:22:47.405Z,46.42
2019-02-25T03:25:17.600Z,46.84
2019-02-25T03:27:46.164Z,46.97
2019-02-25T03:30:17.220Z,47.06
2019-02-25T03:32:46.106Z,46.89
2019-02-25T03:35:14.835Z,46.68
2019-02-25T03:37:44.266Z,46.49
2019-02-25T03:40:21.200Z,46.68
2019-02-25T03:42:50.085Z,46.13
2019-02-25T03:45:19.718Z,46.27
2019-02-25T03:47:48.329Z,46.54
2019-02-25T03:50:16.971Z,46.19
2019-02-25T03:52:45.597Z,45.81
2019-02-25T03:55:21.262Z,46.02
2019-02-25T03:57:50.491Z,46.01
2019-02-25T04:00:25.898Z,45.97
2019-02-25T04:02:54.517Z,46.17
2019-02-25T04:05:23.158Z,46.35
2019-02-25T04:07:51.821Z,46.47
2019-02-25T04:10:20.386Z,46.27
2019-02-25T04:12:49.011Z,46.36
2019-02-25T04:15:20.823Z,46.19
2019-02-25T04:17:49.430Z,46.48
2019-02-25T04:20:18.370Z,46.89
2019-02-25T04:22:47.044Z,47.11
2019-02-25T04:25:15.679Z,47.41
2019-02-25T04:27:44.344Z,47.41
2019-02-25T04:30:17.192Z,47.37
2019-02-25T04:32:45.866Z,47.30
2019-02-25T04:35:14.930Z,47.06
2019-02-25T04:37:43.523Z,47.11
2019-02-25T04:40:14.103Z,47.26
2019-02-25T04:42:42.730Z,47.43
2019-02-25T04:45:14.035Z,47.04
2019-02-25T04:47:42.595Z,47.09
2019-02-25T04:50:12.663Z,47.14
2019-02-25T04:52:41.145Z,47.46
2019-02-25T04:55:11.566Z,47.57
2019-02-25T04:57:40.181Z,47.90
2019-02-25T05:00:14.671Z,47.59
2019-02-25T05:02:43.332Z,47.64
2019-02-25T05:05:11.980Z,48.06
2019-02-25T05:07:40.569Z,48.33
2019-02-25T05:10:14.506Z,48.41
2019-02-25T05:12:44.763Z,48.26
2019-02-25T05:15:15.092Z,48.11
2019-02-25T05:17:43.748Z,48.00
2019-02-25T05:20:12.571Z,48.05
2019-02-25T05:22:41.193Z,48.48
2019-02-25T05:25:11.620Z,48.37
2019-02-25T05:27:40.255Z,48.50
2019-02-25T05:30:11.516Z,48.58
2019-02-25T05:32:40.151Z,48.61
2019-02-25T05:35:10.681Z,48.28
2019-02-25T05:37:39.376Z,48.38
2019-02-25T05:40:15.910Z,48.62
2019-02-25T05:42:44.644Z,48.53
2019-02-25T05:45:14.179Z,48.41
2019-02-25T05:47:42.732Z,48.40
2019-02-25T05:50:19.241Z,48.19
2019-02-25T05:52:47.866Z,47.72
2019-02-25T05:55:17.869Z,47.65
2019-02-25T05:57:46.526Z,47.52
2019-02-25T06:00:19.714Z,47.59
2019-02-25T06:02:48.349Z,47.52
2019-02-25T06:05:17.014Z,47.55
2019-02-25T06:07:45.654Z,47.68
2019-02-25T06:10:14.764Z,47.53
2019-02-25T06:12:43.439Z,47.45
2019-02-25T06:15:17.722Z,47.32
2019-02-25T06:17:46.413Z,47.19
2019-02-25T06:20:17.135Z,47.11
2019-02-25T06:22:46.045Z,47.15
2019-02-25T06:25:15.821Z,46.95
2019-02-25T06:27:44.587Z,46.49
2019-02-25T06:30:18.900Z,46.49
2019-02-25T06:32:47.545Z,46.23
2019-02-25T06:35:16.199Z,46.23
2019-02-25T06:37:44.929Z,45.94
2019-02-25T06:40:17.627Z,46.08
2019-02-25T06:42:46.277Z,45.80
2019-02-25T06:45:19.731Z,45.74
2019-02-25T06:47:48.365Z,45.77
2019-02-25T06:50:18.533Z,45.77
2019-02-25T06:52:47.090Z,45.89
2019-02-25T06:55:17.449Z,46.32
2019-02-25T06:57:45.978Z,46.43
2019-02-25T07:00:19.693Z,46.55
2019-02-25T07:02:48.312Z,46.72
2019-02-25T07:05:18.616Z,46.91
2019-02-25T07:07:57.641Z,47.45
2019-02-25T07:10:43.980Z,47.45
2019-02-25T07:13:19.905Z,47.23
2019-02-25T07:15:50.141Z,47.32
2019-02-25T07:18:22.930Z,47.26
2019-02-25T07:21:09.293Z,46.86
2019-02-25T07:23:42.186Z,46.86
2019-02-25T07:26:28.837Z,46.45
2019-02-25T07:29:15.038Z,46.23
2019-02-25T07:31:48.317Z,45.85
2019-02-25T07:34:21.475Z,46.32
2019-02-25T07:36:54.786Z,46.32
2019-02-25T07:39:40.850Z,46.05
2019-02-25T07:42:11.220Z,45.44
2019-02-25T07:44:47.318Z,45.73
2019-02-25T07:47:17.591Z,45.39
2019-02-25T07:50:03.870Z,45.40
2019-02-25T07:52:34.119Z,45.14
2019-02-25T07:55:10.284Z,45.25
2019-02-25T07:57:43.623Z,45.05
2019-02-25T08:00:14.207Z,44.44
2019-02-25T08:02:50.454Z,44.44
2019-02-25T08:05:29.608Z,44.41
2019-02-25T08:08:02.658Z,44.43
2019-02-25T08:10:35.710Z,44.39
2019-02-25T08:13:11.684Z,44.79
2019-02-25T08:15:41.875Z,45.32
2019-02-25T08:18:12.142Z,46.00
2019-02-25T08:20:50.514Z,46.37
2019-02-25T08:23:20.725Z,46.22
2019-02-25T08:25:59.965Z,46.25
2019-02-25T08:28:45.298Z,46.00
2019-02-25T08:31:27.717Z,45.36
2019-02-25T08:33:59.487Z,44.82
2019-02-25T08:37:02.878Z,44.82
2019-02-25T08:39:39.506Z,44.57
2019-02-25T08:42:09.763Z,43.89
2019-02-25T08:44:48.694Z,43.92
2019-02-25T08:47:18.975Z,44.12
2019-02-25T08:49:50.310Z,44.11
2019-02-25T08:52:19.033Z,43.75
2019-02-25T08:54:47.695Z,43.72
2019-02-25T08:57:16.416Z,43.45
2019-02-25T08:59:45.083Z,42.92
2019-02-25T09:02:13.724Z,42.46
2019-02-25T09:04:42.353Z,42.20
2019-02-25T09:07:11.091Z,43.31
2019-02-25T09:09:39.769Z,42.55
2019-02-25T09:12:08.404Z,42.55
2019-02-25T09:14:36.984Z,40.76
2019-02-25T09:17:05.739Z,40.83
2019-02-25T09:19:36.045Z,39.60
2019-02-25T09:22:04.947Z,39.11
2019-02-25T09:24:33.625Z,38.25
2019-02-25T09:27:02.361Z,37.23
2019-02-25T09:29:33.166Z,38.51
2019-02-25T09:32:01.834Z,37.80
2019-02-25T09:34:31.792Z,37.94
2019-02-25T09:37:00.354Z,38.12
2019-02-25T09:39:29.046Z,38.06
2019-02-25T09:41:59.156Z,38.16
2019-02-25T09:44:27.712Z,37.91
2019-02-25T09:46:56.574Z,37.37
2019-02-25T09:49:25.145Z,37.49
2019-02-25T09:51:53.733Z,36.53
2019-02-25T09:54:22.320Z,35.30
2019-02-25T09:56:52.343Z,34.00
2019-02-25T09:59:20.997Z,33.48
2019-02-25T10:01:49.652Z,32.00
2019-02-25T10:04:18.209Z,31.55
2019-02-25T10:06:46.862Z,32.34
2019-02-25T10:09:15.528Z,32.10
2019-02-25T10:11:44.168Z,31.43
2019-02-25T10:14:14.546Z,31.59
2019-02-25T10:16:43.220Z,31.21
2019-02-25T10:19:13.485Z,31.16
2019-02-25T10:21:42.046Z,31.21
2019-02-25T10:24:11.246Z,31.68
2019-02-25T10:26:39.817Z,30.89
2019-02-25T10:29:08.425Z,31.03
2019-02-25T10:31:38.086Z,30.65
2019-02-25T10:34:07.725Z,30.39
2019-02-25T10:36:36.382Z,29.69
2019-02-25T10:39:09.074Z,29.37
2019-02-25T10:41:39.843Z,28.91
2019-02-25T10:44:08.647Z,27.93
2019-02-25T10:46:39.017Z,29.08
2019-02-25T10:49:11.605Z,30.29
2019-02-25T10:51:39.302Z,29.50
2019-02-25T10:54:08.648Z,28.40
2019-02-25T10:56:40.192Z,28.28
2019-02-25T10:59:09.601Z,27.85
2019-02-25T11:01:39.293Z,27.32
2019-02-25T11:04:08.615Z,26.97
2019-02-25T11:06:37.746Z,25.75
2019-02-25T11:09:11.059Z,25.62
2019-02-25T11:11:41.907Z,24.94
2019-02-25T11:14:10.582Z,24.66
2019-02-25T11:16:39.331Z,24.41
2019-02-25T11:19:08.090Z,24.42
2019-02-25T11:21:37.687Z,24.97
2019-02-25T11:24:07.487Z,25.17
2019-02-25T11:26:36.107Z,24.19
2019-02-25T11:29:05.616Z,25.03
2019-02-25T11:31:35.306Z,24.89
2019-02-25T11:34:05.695Z,25.72
2019-02-25T11:36:34.357Z,26.21
2019-02-25T11:39:04.616Z,25.79
2019-02-25T11:41:34.982Z,26.34
2019-02-25T11:44:05.929Z,26.34
2019-02-25T11:46:34.578Z,26.51
2019-02-25T11:49:03.291Z,27.10
2019-02-25T11:51:31.914Z,27.25
2019-02-25T11:54:02.680Z,27.52
2019-02-25T11:56:31.374Z,26.60
2019-02-25T11:58:59.931Z,25.44
2019-02-25T12:01:28.424Z,24.91
2019-02-25T12:03:57.051Z,25.12
2019-02-25T12:06:25.674Z,25.57
2019-02-25T12:08:54.420Z,25.71
2019-02-25T12:11:23.130Z,25.15
2019-02-25T12:13:52.807Z,24.12
2019-02-25T12:16:21.804Z,23.63
2019-02-25T12:18:50.511Z,24.03
2019-02-25T12:21:19.089Z,24.37
2019-02-25T12:23:47.655Z,24.42
2019-02-25T12:26:16.265Z,25.41
2019-02-25T12:28:44.986Z,25.34
2019-02-25T12:31:13.914Z,24.54
2019-02-25T12:33:42.627Z,23.95
2019-02-25T12:36:11.267Z,23.45
2019-02-25T12:38:40.168Z,22.23
2019-02-25T12:41:09.127Z,22.27
2019-02-25T12:43:37.782Z,22.34
2019-02-25T12:46:06.355Z,22.99
2019-02-25T12:48:34.970Z,22.97
2019-02-25T12:51:05.099Z,23.84
2019-02-25T12:53:33.745Z,24.52
2019-02-25T12:56:02.411Z,24.46
2019-02-25T12:58:31.002Z,23.32
2019-02-25T13:00:59.670Z,23.70
2019-02-25T13:03:28.305Z,23.66
2019-02-25T13:05:56.896Z,23.37
2019-02-25T13:08:25.599Z,22.98
2019-02-25T13:10:54.172Z,21.96
2019-02-25T13:13:22.736Z,21.90
2019-02-25T13:15:51.280Z,21.95
2019-02-25T13:18:20.055Z,21.19
2019-02-25T13:20:48.626Z,21.13
2019-02-25T13:23:17.295Z,21.62
2019-02-25T13:25:45.860Z,22.49
2019-02-25T13:28:14.597Z,22.08
2019-02-25T13:30:43.249Z,22.49
2019-02-25T13:33:11.817Z,22.01
2019-02-25T13:35:40.382Z,22.77
2019-02-25T13:38:09.034Z,23.03
2019-02-25T13:40:40.102Z,23.17
2019-02-25T13:43:08.751Z,22.50
2019-02-25T13:45:37.443Z,23.57
2019-02-25T13:48:06.102Z,22.82
2019-02-25T13:50:35.013Z,23.22
2019-02-25T13:53:03.786Z,23.10
2019-02-25T13:55:32.495Z,22.35
2019-02-25T13:58:01.413Z,22.03
2019-02-25T14:00:31.000Z,21.65
2019-02-25T14:02:59.675Z,22.80
2019-02-25T14:05:29.751Z,22.96
2019-02-25T14:07:58.373Z,22.83
2019-02-25T14:10:26.947Z,22.91
2019-02-25T14:12:55.699Z,23.23
2019-02-25T14:15:25.310Z,22.77
2019-02-25T14:17:53.958Z,22.63
2019-02-25T14:20:24.083Z,22.42
2019-02-25T14:22:52.781Z,22.19
2019-02-25T14:25:27.312Z,22.34
2019-02-25T14:27:56.263Z,22.30
2019-02-25T14:30:26.231Z,21.83
2019-02-25T14:32:55.958Z,22.25
2019-02-25T14:35:29.490Z,22.44
2019-02-25T14:38:05.086Z,22.47
2019-02-25T14:40:32.514Z,22.98
2019-02-25T14:43:05.716Z,22.95
2019-02-25T14:45:34.433Z,22.49
2019-02-25T14:48:05.564Z,22.87
2019-02-25T14:50:33.966Z,22.93
2019-02-25T14:53:04.012Z,23.16
2019-02-25T14:55:33.395Z,23.33
2019-02-25T14:58:04.471Z,23.16
2019-02-25T15:00:35.054Z,23.41
2019-02-25T15:03:04.225Z,23.54
2019-02-25T15:05:32.865Z,22.91
2019-02-25T15:08:01.806Z,22.89
2019-02-25T15:10:31.566Z,23.38
2019-02-25T15:13:01.997Z,23.35
2019-02-25T15:15:31.248Z,23.36
2019-02-25T15:17:59.827Z,23.58
2019-02-25T15:20:28.972Z,23.50
2019-02-25T15:22:57.734Z,22.92
2019-02-25T15:25:29.109Z,22.88
2019-02-25T15:27:58.048Z,22.77
2019-02-25T15:30:32.888Z,23.02
2019-02-25T15:33:01.525Z,23.26
2019-02-25T15:35:32.410Z,22.90
2019-02-25T15:38:00.819Z,22.94
2019-02-25T15:40:29.650Z,22.97
2019-02-25T15:43:06.315Z,23.38
2019-02-25T15:45:38.359Z,23.16
2019-02-25T15:48:09.313Z,24.73
2019-02-25T15:50:38.213Z,25.51
2019-02-25T15:53:09.455Z,26.50
2019-02-25T15:55:38.798Z,27.68
2019-02-25T15:58:08.730Z,28.37
2019-02-25T16:00:38.649Z,29.04
2019-02-25T16:03:10.665Z,30.22
2019-02-25T16:05:39.042Z,30.65
2019-02-25T16:08:09.550Z,31.65
2019-02-25T16:10:38.194Z,32.18
2019-02-25T16:13:10.979Z,33.12
2019-02-25T16:15:37.532Z,33.24
2019-02-25T16:18:06.278Z,33.48
2019-02-25T16:20:35.270Z,33.87
2019-02-25T16:23:07.237Z,33.83
2019-02-25T16:25:35.640Z,34.38
2019-02-25T16:28:05.992Z,34.99
2019-02-25T16:30:34.767Z,36.02
2019-02-25T16:33:07.270Z,35.87
2019-02-25T16:35:36.870Z,36.57
2019-02-25T16:38:07.336Z,36.15
2019-02-25T16:40:38.360Z,36.15
2019-02-25T16:43:12.117Z,36.32
2019-02-25T16:45:40.144Z,37.37
2019-02-25T16:48:09.142Z,37.86
2019-02-25T16:50:39.808Z,38.19
2019-02-25T16:53:10.894Z,38.15
2019-02-25T16:55:42.756Z,38.53
2019-02-25T16:58:13.313Z,38.94
2019-02-25T17:00:42.808Z,39.23
2019-02-25T17:03:13.682Z,39.00
2019-02-25T17:05:45.643Z,39.42
2019-02-25T17:08:14.819Z,39.58
2019-02-25T17:10:43.404Z,39.54
2019-02-25T17:13:14.325Z,39.87
2019-02-25T17:15:46.048Z,39.87
2019-02-25T17:18:15.133Z,39.90
2019-02-25T17:20:45.055Z,39.90
2019-02-25T17:23:13.913Z,39.60
2019-02-25T17:25:43.617Z,39.60
2019-02-25T17:28:15.348Z,39.74
2019-02-25T17:30:45.020Z,39.95
2019-02-25T17:33:14.832Z,39.91
2019-02-25T17:35:45.350Z,39.59
2019-02-25T17:38:14.185Z,40.29
2019-02-25T17:40:42.828Z,40.38
2019-02-25T17:43:13.352Z,40.31
2019-02-25T17:45:41.852Z,40.55
2019-02-25T17:48:13.506Z,40.49
2019-02-25T17:50:41.698Z,40.77
2019-02-25T17:53:10.415Z,41.00
2019-02-25T17:55:39.328Z,41.14
2019-02-25T17:58:08.896Z,41.14
2019-02-25T18:00:42.559Z,41.38
2019-02-25T18:03:11.390Z,41.70
2019-02-25T18:05:42.924Z,42.28
2019-02-25T18:08:14.894Z,42.40
2019-02-25T18:10:43.660Z,43.22
2019-02-25T18:13:13.260Z,43.05
2019-02-25T18:15:42.173Z,43.02
2019-02-25T18:18:14.091Z,43.74
2019-02-25T18:20:41.768Z,43.57
2019-02-25T18:23:10.624Z,43.66
2019-02-25T18:25:39.709Z,43.78
2019-02-25T18:28:10.843Z,44.19
2019-02-25T18:30:39.802Z,44.19
2019-02-25T18:33:09.488Z,44.25
2019-02-25T18:35:41.619Z,44.25
2019-02-25T18:38:10.339Z,44.74
2019-02-25T18:40:41.357Z,44.53
2019-02-25T18:43:11.810Z,44.53
2019-02-25T18:45:42.633Z,45.27
2019-02-25T18:48:11.049Z,44.93
2019-02-25T18:50:39.774Z,44.93
2019-02-25T18:53:10.224Z,45.30
2019-02-25T18:55:41.317Z,45.23
2019-02-25T18:58:12.594Z,45.22
2019-02-25T19:00:45.357Z,45.04
2019-02-25T19:03:14.323Z,45.26
2019-02-25T19:05:42.999Z,45.14
2019-02-25T19:08:20.301Z,45.90
2019-02-25T19:10:52.712Z,45.90
2019-02-25T19:13:23.334Z,46.06
2019-02-25T19:15:53.088Z,45.81
2019-02-25T19:18:22.493Z,45.80
2019-02-25T19:20:53.418Z,45.98
2019-02-25T19:23:25.736Z,45.99
2019-02-25T19:25:54.536Z,46.13
2019-02-25T19:28:24.422Z,46.12
2019-02-25T19:30:53.858Z,46.47
2019-02-25T19:33:24.319Z,46.51
2019-02-25T19:35:54.386Z,46.70
2019-02-25T19:38:25.118Z,46.08
2019-02-25T19:40:55.950Z,46.73
2019-02-25T19:43:26.012Z,46.64
2019-02-25T19:45:54.657Z,46.58
2019-02-25T19:48:28.337Z,46.58
2019-02-25T19:50:56.149Z,46.63
2019-02-25T19:53:25.565Z,46.51
2019-02-25T19:55:55.819Z,46.99
2019-02-25T19:58:26.789Z,46.99
2019-02-25T20:01:00.295Z,46.78
2019-02-25T20:03:25.885Z,46.78
2019-02-25T20:05:56.389Z,47.09
2019-02-25T20:08:25.443Z,46.91
2019-02-25T20:10:55.604Z,46.89
2019-02-25T20:13:24.319Z,46.88
2019-02-25T20:15:53.343Z,46.89
2019-02-25T20:18:23.224Z,47.08
2019-02-25T20:20:52.046Z,47.08
2019-02-25T20:23:23.991Z,47.28
2019-02-25T20:25:53.490Z,47.05
2019-02-25T20:28:26.681Z,47.16
2019-02-25T20:30:55.684Z,47.18
2019-02-25T20:33:31.837Z,47.34
2019-02-25T20:35:58.940Z,47.34
2019-02-25T20:38:29.612Z,47.31
2019-02-25T20:41:02.563Z,47.68
2019-02-25T20:43:33.096Z,47.46
2019-02-25T20:46:05.804Z,47.27
2019-02-25T20:48:35.344Z,47.48
2019-02-25T20:51:06.729Z,47.69
2019-02-25T20:53:34.662Z,47.69
2019-02-25T20:56:03.359Z,47.88
2019-02-25T20:58:36.077Z,47.86
2019-02-25T21:01:07.502Z,47.86
2019-02-25T21:03:41.520Z,47.97
2019-02-25T21:06:12.684Z,48.27
2019-02-25T21:08:42.346Z,47.83
2019-02-25T21:11:15.647Z,48.06
2019-02-25T21:13:43.949Z,48.06
2019-02-25T21:16:16.121Z,48.23
2019-02-25T21:18:46.639Z,48.14
2019-02-25T21:21:17.873Z,48.29
2019-02-25T21:23:50.007Z,49.18
2019-02-25T21:26:18.586Z,48.88
2019-02-25T21:28:48.920Z,49.17
2019-02-25T21:31:21.378Z,49.17
2019-02-25T21:33:54.241Z,48.57
2019-02-25T21:36:24.487Z,49.34
2019-02-25T21:38:56.055Z,49.34
2019-02-25T21:41:24.897Z,49.04
2019-02-25T21:43:59.103Z,48.95
2019-02-25T21:46:28.909Z,48.96
2019-02-25T21:49:01.525Z,49.08
2019-02-25T21:51:32.666Z,49.08
2019-02-25T21:54:04.435Z,49.14
2019-02-25T21:56:33.121Z,49.53
2019-02-25T21:59:01.740Z,49.53
2019-02-25T22:01:32.325Z,49.71
2019-02-25T22:04:03.270Z,49.71
2019-02-25T22:06:33.256Z,49.63
2019-02-25T22:09:03.010Z,49.63
2019-02-25T22:11:32.606Z,49.82
2019-02-25T22:14:01.240Z,49.78
2019-02-25T22:16:32.125Z,50.19
2019-02-25T22:19:04.309Z,50.19
2019-02-25T22:21:34.588Z,49.95
2019-02-25T22:24:05.832Z,50.01
2019-02-25T22:26:35.984Z,50.01
2019-02-25T22:29:08.377Z,49.97
2019-02-25T22:31:39.418Z,50.07
2019-02-25T22:34:08.857Z,50.48
2019-02-25T22:36:41.633Z,50.21
2019-02-25T22:39:08.526Z,50.48
2019-02-25T22:41:37.095Z,50.65
2019-02-25T22:44:08.474Z,50.62
2019-02-25T22:46:41.343Z,51.01
2019-02-25T22:49:09.902Z,50.66
2019-02-25T22:51:38.596Z,50.67
2019-02-25T22:54:10.384Z,50.89
2019-02-25T22:56:42.560Z,50.76
2019-02-25T22:59:11.256Z,50.41
2019-02-25T23:01:40.985Z,50.41
2019-02-25T23:04:13.050Z,50.92
2019-02-25T23:06:42.438Z,50.84
2019-02-25T23:09:14.369Z,50.75
2019-02-25T23:11:44.283Z,50.94
2019-02-25T23:14:15.829Z,51.38
2019-02-25T23:16:45.858Z,51.33
2019-02-25T23:19:15.800Z,51.45
2019-02-25T23:21:45.244Z,51.45
2019-02-25T23:24:13.862Z,51.59
2019-02-25T23:26:42.361Z,51.59
2019-02-25T23:29:10.865Z,51.57
2019-02-25T23:31:39.550Z,51.24
2019-02-25T23:34:10.382Z,51.29
2019-02-25T23:36:42.999Z,51.18
2019-02-25T23:39:09.869Z,51.23
2019-02-25T23:41:38.968Z,51.37
2019-02-25T23:44:11.133Z,51.08
2019-02-25T23:46:40.796Z,51.14
2019-02-25T23:49:10.892Z,51.14
2019-02-25T23:51:41.521Z,51.14
2019-02-25T23:54:12.154Z,50.85
2019-02-25T23:56:45.465Z,50.85
2019-02-25T23:59:14.564Z,50.59
